Alfred, Maine
Current Conditions -  °F | °C
As of 7:15 PM on Friday 24 Oct 2014 (Local Time) from KSFM Reporting Station
Overcast Overcast  
Wind Chill: 10°   Ceiling: 3000
Heat Index: 10°   Visibility: 10mi
Dew Point:   Wind: 0mph
Humidity: 76%   Direction: NA
Pressure: 29.71"   Gusts: NA
Location:  43.48°N, 70.72°W
Report Text: KSFM 242315Z AUTO 00000KT 10SM OVC030 10/06 A2971 RMK AO1
Loading
Personal Weather Stations






























Interactive Weather Map New forecast layout! Learn more

10-Day Weather Forecast

Advertisements
Track Severe Weather on mobile